Arcola, Pennsylvania
Current Conditions -  °F | °C
As of 11:54 PM on Sunday 23 Nov 2014 (Local Time) from KPTW Reporting Station
Overcast Overcast  
Wind Chill: 49°   Ceiling: 3000
Heat Index: 49°   Visibility: 10mi
Dew Point: 45°   Wind: 3mph
Humidity: 86%   Direction: 70°ENE
Pressure: 29.92"   Gusts: NA
Location:  40.15°N, 75.46°W
Report Text: KPTW 240454Z AUTO 07003KT 10SM SCT025 BKN030 OVC040 09/07 A2992 RMK AO2 RAE39 SLP128 P0000 T00940072 401390022
Loading
Personal Weather Stations






























Interactive Weather Map New forecast layout! Learn more

10-Day Weather Forecast

Advertisements
Track Severe Weather on mobile